createdAt,value
2023-03-06T00:02:23.099Z,1.90
2023-03-06T00:04:49.768Z,2.55
2023-03-06T00:07:16.570Z,2.00
2023-03-06T00:09:43.427Z,1.90
2023-03-06T00:12:10.268Z,2.17
2023-03-06T00:14:36.972Z,1.85
2023-03-06T00:17:04.191Z,1.95
2023-03-06T00:19:31.145Z,2.03
2023-03-06T00:21:58.124Z,2.20
2023-03-06T00:24:24.861Z,2.15
2023-03-06T00:26:51.564Z,2.47
2023-03-06T00:29:18.251Z,2.85
2023-03-06T00:31:47.976Z,3.90
2023-03-06T00:34:15.160Z,3.40
2023-03-06T00:36:42.145Z,2.42
2023-03-06T00:39:09.726Z,1.92
2023-03-06T00:41:36.535Z,2.20
2023-03-06T00:44:03.295Z,2.72
2023-03-06T00:46:30.253Z,1.65
2023-03-06T00:48:57.000Z,2.10
2023-03-06T00:51:23.714Z,1.90
2023-03-06T00:53:50.465Z,1.30
2023-03-06T00:56:19.933Z,1.17
2023-03-06T00:58:47.885Z,1.77
2023-03-06T01:01:14.864Z,1.05
2023-03-06T01:03:41.675Z,1.50
2023-03-06T01:06:08.423Z,1.38
2023-03-06T01:08:35.432Z,2.85
2023-03-06T01:11:02.128Z,1.25
2023-03-06T01:13:28.939Z,1.20
2023-03-06T01:15:55.591Z,1.40
2023-03-06T01:18:22.455Z,1.30
2023-03-06T01:20:49.174Z,1.40
2023-03-06T01:23:15.897Z,1.17
2023-03-06T01:25:42.594Z,2.17
2023-03-06T01:28:09.299Z,2.03
2023-03-06T01:30:36.058Z,2.00
2023-03-06T01:33:02.943Z,2.63
2023-03-06T01:35:29.785Z,2.80
2023-03-06T01:37:56.538Z,2.30
2023-03-06T01:40:23.248Z,3.05
2023-03-06T01:42:51.030Z,2.65
2023-03-06T01:45:17.704Z,2.90
2023-03-06T01:47:45.403Z,2.88
2023-03-06T01:50:12.739Z,3.10
2023-03-06T01:52:56.741Z,3.42
2023-03-06T01:55:26.979Z,11.77
2023-03-06T01:57:57.859Z,24.23
2023-03-06T02:00:26.977Z,6.15
2023-03-06T02:02:56.081Z,3.63
2023-03-06T02:05:23.211Z,4.05
2023-03-06T02:07:50.755Z,4.18
2023-03-06T02:10:18.755Z,3.45
2023-03-06T02:12:46.079Z,4.18
2023-03-06T02:15:14.399Z,4.88
2023-03-06T02:17:43.672Z,5.10
2023-03-06T02:20:15.312Z,4.80
2023-03-06T02:22:58.540Z,4.80
2023-03-06T02:25:41.232Z,5.28
2023-03-06T02:28:13.989Z,5.40
2023-03-06T02:30:42.520Z,6.30
2023-03-06T02:33:13.622Z,5.88
2023-03-06T02:35:44.201Z,5.88
2023-03-06T02:38:14.409Z,6.38
2023-03-06T02:43:11.442Z,6.07
2023-03-06T02:45:45.381Z,6.38
2023-03-06T02:48:13.419Z,6.05
2023-03-06T02:50:40.720Z,6.93
2023-03-06T02:53:09.300Z,5.40
2023-03-06T02:55:36.554Z,5.60
2023-03-06T02:58:03.770Z,6.13
2023-03-06T03:00:33.807Z,6.25
2023-03-06T03:03:03.498Z,6.97
2023-03-06T03:05:31.424Z,7.30
2023-03-06T03:08:05.012Z,6.78
2023-03-06T03:10:32.351Z,6.60
2023-03-06T03:12:59.334Z,6.43
2023-03-06T03:15:26.165Z,6.55
2023-03-06T03:17:53.137Z,6.57
2023-03-06T03:20:21.838Z,7.40
2023-03-06T03:22:53.992Z,9.50
2023-03-06T03:25:24.392Z,7.15
2023-03-06T03:27:53.009Z,6.72
2023-03-06T03:30:20.056Z,8.35
2023-03-06T03:32:46.769Z,8.35
2023-03-06T03:35:13.674Z,8.55
2023-03-06T03:37:41.192Z,8.52
2023-03-06T03:40:10.543Z,8.25
2023-03-06T03:42:38.472Z,6.50
2023-03-06T03:45:06.752Z,7.05
2023-03-06T03:47:33.481Z,7.88
2023-03-06T03:50:00.702Z,6.88
2023-03-06T03:52:27.529Z,7.03
2023-03-06T03:54:54.579Z,6.20
2023-03-06T03:57:21.412Z,6.20
2023-03-06T03:59:51.404Z,5.97
2023-03-06T04:02:40.580Z,6.88
2023-03-06T04:05:16.245Z,5.82
2023-03-06T04:07:43.709Z,7.40
2023-03-06T04:10:12.576Z,5.78
2023-03-06T04:12:39.701Z,6.07
2023-03-06T04:15:07.809Z,5.30
2023-03-06T04:17:35.601Z,4.50
2023-03-06T04:20:05.195Z,5.57
2023-03-06T04:22:32.885Z,4.80
2023-03-06T04:25:00.369Z,4.75
2023-03-06T04:27:27.362Z,4.32
2023-03-06T04:29:56.509Z,4.53
2023-03-06T04:32:24.172Z,4.75
2023-03-06T04:34:51.331Z,4.75
2023-03-06T04:37:23.301Z,4.80
2023-03-06T04:39:53.958Z,5.40
2023-03-06T04:42:20.887Z,4.40
2023-03-06T04:44:47.662Z,4.38
2023-03-06T04:47:14.458Z,8.13
2023-03-06T04:49:41.219Z,4.72
2023-03-06T04:52:08.355Z,4.22
2023-03-06T04:54:35.221Z,4.57
2023-03-06T04:57:02.096Z,4.53
2023-03-06T04:59:28.828Z,4.25
2023-03-06T05:01:55.819Z,4.65
2023-03-06T05:04:22.635Z,4.47
2023-03-06T05:06:49.625Z,4.70
2023-03-06T05:09:16.925Z,4.32
2023-03-06T05:11:43.587Z,3.97
2023-03-06T05:14:10.339Z,4.68
2023-03-06T05:16:37.064Z,4.07
2023-03-06T05:19:03.781Z,4.93
2023-03-06T05:21:30.577Z,5.00
2023-03-06T05:23:57.474Z,5.43
2023-03-06T05:26:24.212Z,5.40
2023-03-06T05:28:50.950Z,5.35
2023-03-06T05:31:17.713Z,5.28
2023-03-06T05:33:44.405Z,4.57
2023-03-06T05:36:11.700Z,5.22
2023-03-06T05:38:38.400Z,6.13
2023-03-06T05:41:05.485Z,4.47
2023-03-06T05:43:32.220Z,5.50
2023-03-06T05:46:06.168Z,4.80
2023-03-06T05:48:33.503Z,4.43
2023-03-06T05:51:01.376Z,4.55
2023-03-06T05:53:29.407Z,4.03
2023-03-06T05:56:04.046Z,3.50
2023-03-06T05:58:32.020Z,3.60
2023-03-06T06:00:58.897Z,4.63
2023-03-06T06:03:25.707Z,4.22
2023-03-06T06:05:52.677Z,4.18
2023-03-06T06:08:19.372Z,4.00
2023-03-06T06:10:46.047Z,3.35
2023-03-06T06:13:12.775Z,3.90
2023-03-06T06:15:39.516Z,2.97
2023-03-06T06:18:06.233Z,3.72
2023-03-06T06:20:33.198Z,3.00
2023-03-06T06:22:59.909Z,2.78
2023-03-06T06:25:26.644Z,2.78
2023-03-06T06:27:55.437Z,2.60
2023-03-06T06:30:22.885Z,2.60
2023-03-06T06:32:49.861Z,1.92
2023-03-06T06:35:16.645Z,2.50
2023-03-06T06:37:43.311Z,2.20
2023-03-06T06:40:10.638Z,2.65
2023-03-06T06:42:40.086Z,2.67
2023-03-06T06:45:09.093Z,2.72
2023-03-06T06:47:38.432Z,2.28
2023-03-06T06:50:05.795Z,2.67
2023-03-06T06:52:32.458Z,2.40
2023-03-06T06:54:59.118Z,2.50
2023-03-06T06:57:25.851Z,2.80
2023-03-06T06:59:54.063Z,2.40
2023-03-06T07:02:21.296Z,2.22
2023-03-06T07:05:02.448Z,2.30
2023-03-06T07:07:30.874Z,2.72
2023-03-06T07:09:57.703Z,2.55
2023-03-06T07:12:24.460Z,2.80
2023-03-06T07:14:51.147Z,2.40
2023-03-06T07:17:18.126Z,2.38
2023-03-06T07:19:44.838Z,2.70
2023-03-06T07:22:11.936Z,2.67
2023-03-06T07:24:38.660Z,2.33
2023-03-06T07:27:05.414Z,2.70
2023-03-06T07:29:34.116Z,3.05
2023-03-06T07:32:00.961Z,2.90
2023-03-06T07:34:27.805Z,2.65
2023-03-06T07:36:54.613Z,3.05
2023-03-06T07:39:21.406Z,3.17
2023-03-06T07:41:48.149Z,3.00
2023-03-06T07:44:14.916Z,3.10
2023-03-06T07:46:41.741Z,2.70
2023-03-06T07:49:08.563Z,2.72
2023-03-06T07:51:35.331Z,5.93
2023-03-06T07:54:02.259Z,14.73
2023-03-06T07:56:44.453Z,2.80
2023-03-06T07:59:14.265Z,2.88
2023-03-06T08:01:41.237Z,2.60
2023-03-06T08:04:13.694Z,2.90
2023-03-06T08:06:40.664Z,2.83
2023-03-06T08:09:10.189Z,3.20
2023-03-06T08:11:37.057Z,3.25
2023-03-06T08:14:06.196Z,3.08
2023-03-06T08:16:33.035Z,2.88
2023-03-06T08:18:59.910Z,3.03
2023-03-06T08:21:27.992Z,3.53
2023-03-06T08:23:55.360Z,2.97
2023-03-06T08:26:24.907Z,3.03
2023-03-06T08:28:53.385Z,3.05
2023-03-06T08:31:25.813Z,3.60
2023-03-06T08:33:53.182Z,3.47
2023-03-06T08:36:20.098Z,3.03
2023-03-06T08:38:49.136Z,3.80
2023-03-06T08:41:15.935Z,9.15
2023-03-06T08:43:42.942Z,6.18
2023-03-06T08:46:10.736Z,4.97
2023-03-06T08:48:37.946Z,5.30
2023-03-06T08:51:04.860Z,7.85
2023-03-06T08:53:42.659Z,4.55
2023-03-06T08:56:30.229Z,9.38
2023-03-06T08:59:00.073Z,12.10
2023-03-06T09:01:32.226Z,6.07
2023-03-06T09:04:01.631Z,6.50
2023-03-06T09:06:33.051Z,4.28
2023-03-06T09:09:00.263Z,4.97
2023-03-06T09:11:30.172Z,4.57
2023-03-06T09:13:58.533Z,9.93
2023-03-06T09:16:29.049Z,4.22
2023-03-06T09:19:09.798Z,6.05
2023-03-06T09:21:42.520Z,4.20
2023-03-06T09:24:11.164Z,4.35
2023-03-06T09:26:46.448Z,3.83
2023-03-06T09:29:25.478Z,3.88
2023-03-06T09:31:55.773Z,4.88
2023-03-06T09:34:46.516Z,4.78
2023-03-06T09:37:41.824Z,4.30
2023-03-06T09:40:31.367Z,4.28
2023-03-06T09:43:15.835Z,4.45
2023-03-06T09:45:48.309Z,4.68
2023-03-06T09:48:15.896Z,4.90
2023-03-06T09:50:50.215Z,4.82
2023-03-06T09:53:42.858Z,4.80
2023-03-06T09:56:21.973Z,6.25
2023-03-06T09:58:51.795Z,5.80
2023-03-06T10:01:28.601Z,5.13
2023-03-06T10:04:31.242Z,5.10
2023-03-06T10:07:04.927Z,4.80
2023-03-06T10:09:42.723Z,5.35
2023-03-06T10:12:19.529Z,4.72
2023-03-06T10:14:54.105Z,5.13
2023-03-06T10:17:22.899Z,4.35
2023-03-06T10:19:50.163Z,4.13
2023-03-06T10:25:38.750Z,4.00
2023-03-06T10:28:15.041Z,3.85
2023-03-06T10:30:51.751Z,3.63
2023-03-06T10:33:54.906Z,3.10
2023-03-06T10:36:27.401Z,2.55
2023-03-06T10:38:55.697Z,2.95
2023-03-06T10:41:28.420Z,2.70
2023-03-06T10:44:01.356Z,2.15
2023-03-06T10:46:31.727Z,2.00
2023-03-06T10:49:00.827Z,2.03
2023-03-06T10:51:29.077Z,2.53
2023-03-06T10:54:01.427Z,2.25
2023-03-06T10:56:31.407Z,2.22
2023-03-06T10:59:19.720Z,1.75
2023-03-06T11:01:48.783Z,1.63
2023-03-06T11:04:31.158Z,1.88
2023-03-06T11:07:15.619Z,1.80
2023-03-06T11:09:48.296Z,1.77
2023-03-06T11:12:21.399Z,3.85
2023-03-06T11:15:12.431Z,2.38
2023-03-06T11:24:57.990Z,7.55
2023-03-06T11:27:34.785Z,2.25
2023-03-06T11:30:16.981Z,1.80
2023-03-06T11:32:54.088Z,1.60
2023-03-06T11:35:27.382Z,1.75
2023-03-06T11:38:09.939Z,1.70
2023-03-06T11:40:37.667Z,1.80
2023-03-06T11:43:35.907Z,1.52
2023-03-06T11:46:19.145Z,1.30
2023-03-06T11:48:53.622Z,1.23
2023-03-06T11:51:28.175Z,1.10
2023-03-06T11:54:00.341Z,1.23
2023-03-06T11:57:24.373Z,1.35
2023-03-06T12:00:03.582Z,1.17
2023-03-06T12:02:57.446Z,1.55
2023-03-06T12:05:34.077Z,1.17
2023-03-06T12:08:49.093Z,1.35
2023-03-06T12:11:59.961Z,1.42
2023-03-06T12:14:53.644Z,1.45
2023-03-06T12:18:00.777Z,1.20
2023-03-06T12:23:44.798Z,1.05
2023-03-06T12:26:46.020Z,1.25
2023-03-06T12:29:40.391Z,1.27
2023-03-06T12:32:26.238Z,0.88
2023-03-06T12:34:59.216Z,1.45
2023-03-06T12:37:56.978Z,0.90
2023-03-06T12:40:35.906Z,1.30
2023-03-06T12:43:33.745Z,0.80
2023-03-06T12:46:24.306Z,2.10
2023-03-06T12:49:11.156Z,0.73
2023-03-06T12:51:40.069Z,0.80
2023-03-06T12:54:07.523Z,0.90
2023-03-06T12:56:44.145Z,1.83
2023-03-06T12:59:50.586Z,1.48
2023-03-06T13:02:56.229Z,5.60
2023-03-06T13:05:38.662Z,1.05
2023-03-06T13:08:15.735Z,2.20
2023-03-06T13:11:40.887Z,2.83
2023-03-06T13:14:26.305Z,1.00
2023-03-06T13:16:53.457Z,1.42
2023-03-06T13:19:22.562Z,1.67
2023-03-06T13:21:55.347Z,0.90
2023-03-06T13:24:34.363Z,1.80
2023-03-06T13:27:11.388Z,1.10
2023-03-06T13:29:38.152Z,0.82
2023-03-06T13:32:16.683Z,1.20
2023-03-06T13:34:47.061Z,1.42
2023-03-06T13:37:13.834Z,1.30
2023-03-06T13:40:10.106Z,1.10
2023-03-06T13:42:57.744Z,1.45
2023-03-06T13:45:30.709Z,1.55
2023-03-06T13:48:24.568Z,1.23
2023-03-06T13:50:49.172Z,1.88
2023-03-06T13:53:51.681Z,1.10
2023-03-06T13:56:54.206Z,0.95
2023-03-06T13:59:35.817Z,1.23
2023-03-06T14:02:28.112Z,1.15
2023-03-06T14:04:56.851Z,1.35
2023-03-06T14:07:28.668Z,1.00
2023-03-06T14:10:21.985Z,1.15
2023-03-06T14:12:48.827Z,1.23
2023-03-06T14:15:22.833Z,1.00
2023-03-06T14:17:57.495Z,0.85
2023-03-06T14:20:33.943Z,1.20
2023-03-06T14:23:21.053Z,4.75
2023-03-06T14:25:53.043Z,1.30
2023-03-06T14:28:25.933Z,1.23
2023-03-06T14:30:53.992Z,1.90
2023-03-06T14:33:43.402Z,1.40
2023-03-06T14:36:16.810Z,5.80
2023-03-06T14:38:56.132Z,3.22
2023-03-06T14:41:31.466Z,3.83
2023-03-06T14:44:27.965Z,1.40
2023-03-06T14:46:56.640Z,2.47
2023-03-06T14:49:25.796Z,1.48
2023-03-06T14:51:55.392Z,1.77
2023-03-06T14:54:26.878Z,15.57
2023-03-06T14:56:56.854Z,8.60
2023-03-06T14:59:26.822Z,4.10
2023-03-06T15:02:04.830Z,1.13
2023-03-06T15:04:36.952Z,1.02
2023-03-06T15:07:13.590Z,2.05
2023-03-06T15:09:45.293Z,5.07
2023-03-06T15:12:21.427Z,1.10
2023-03-06T15:15:03.743Z,0.95
2023-03-06T15:17:37.895Z,1.80
2023-03-06T15:20:09.727Z,1.10
2023-03-06T15:22:38.741Z,1.40
2023-03-06T15:25:21.224Z,1.15
2023-03-06T15:27:50.560Z,1.00
2023-03-06T15:30:29.850Z,2.40
2023-03-06T15:33:29.275Z,1.15
2023-03-06T15:36:04.392Z,0.88
2023-03-06T15:38:34.349Z,0.80
2023-03-06T15:41:03.531Z,0.60
2023-03-06T15:43:36.469Z,0.90
2023-03-06T15:46:05.319Z,0.95
2023-03-06T15:48:34.067Z,1.50
2023-03-06T15:51:01.728Z,1.02
2023-03-06T15:53:28.696Z,0.77
2023-03-06T15:55:57.225Z,1.63
2023-03-06T15:58:26.887Z,0.88
2023-03-06T16:00:53.815Z,1.13
2023-03-06T16:03:20.591Z,1.20
2023-03-06T16:05:47.464Z,1.00
2023-03-06T16:08:15.095Z,0.90
2023-03-06T16:10:43.132Z,1.05
2023-03-06T16:13:17.616Z,3.50
2023-03-06T16:15:47.475Z,2.38
2023-03-06T16:18:14.511Z,2.47
2023-03-06T16:20:41.901Z,2.05
2023-03-06T16:23:10.726Z,7.47
2023-03-06T16:25:42.367Z,2.00
2023-03-06T16:28:16.580Z,2.28
2023-03-06T16:30:44.927Z,1.65
2023-03-06T16:33:12.746Z,1.25
2023-03-06T16:35:40.227Z,5.93
2023-03-06T16:38:07.004Z,1.92
2023-03-06T16:40:37.839Z,4.72
2023-03-06T16:45:35.643Z,4.97
2023-03-06T16:48:02.512Z,2.30
2023-03-06T16:50:34.119Z,8.57
2023-03-06T16:53:00.865Z,1.48
2023-03-06T16:55:28.031Z,1.05
2023-03-06T16:57:54.952Z,1.27
2023-03-06T17:00:24.698Z,1.20
2023-03-06T17:02:52.460Z,1.85
2023-03-06T17:05:19.800Z,1.73
2023-03-06T17:07:46.945Z,50.53
2023-03-06T17:10:16.780Z,5.45
2023-03-06T17:12:43.908Z,3.07
2023-03-06T17:15:11.319Z,3.05
2023-03-06T17:17:38.103Z,2.92
2023-03-06T17:20:11.953Z,3.10
2023-03-06T17:22:38.946Z,3.33
2023-03-06T17:25:07.027Z,2.70
2023-03-06T17:27:34.708Z,3.67
2023-03-06T17:30:01.749Z,3.35
2023-03-06T17:32:28.659Z,4.10
2023-03-06T17:34:56.476Z,3.15
2023-03-06T17:37:23.242Z,4.03
2023-03-06T17:39:50.039Z,3.85
2023-03-06T17:42:17.044Z,4.30
2023-03-06T17:44:43.720Z,5.95
2023-03-06T17:47:10.634Z,6.28
2023-03-06T17:49:37.486Z,6.65
2023-03-06T17:52:06.657Z,6.32
2023-03-06T17:54:37.048Z,7.70
2023-03-06T17:57:05.724Z,4.80
2023-03-06T17:59:35.918Z,2.15
2023-03-06T18:02:02.802Z,2.53
2023-03-06T18:04:29.928Z,5.28
2023-03-06T18:06:58.401Z,5.95
2023-03-06T18:09:25.134Z,16.02
2023-03-06T18:11:51.842Z,60.40
2023-03-06T18:14:18.716Z,131.50
2023-03-06T18:16:45.434Z,100.22
2023-03-06T18:19:12.748Z,62.05
2023-03-06T18:21:39.983Z,89.10
2023-03-06T18:24:07.573Z,130.05
2023-03-06T18:26:34.314Z,50.90
2023-03-06T18:29:04.579Z,27.10
2023-03-06T18:31:39.513Z,19.38
2023-03-06T18:34:08.754Z,24.25
2023-03-06T18:36:35.880Z,24.20
2023-03-06T18:39:03.999Z,11.43
2023-03-06T18:41:31.399Z,9.70
2023-03-06T18:44:02.519Z,11.85
2023-03-06T18:46:34.565Z,12.35
2023-03-06T18:49:01.741Z,14.20
2023-03-06T18:51:29.314Z,18.20
2023-03-06T18:53:58.222Z,15.27
2023-03-06T18:56:25.302Z,12.93
2023-03-06T18:58:52.330Z,13.57
2023-03-06T19:01:19.400Z,18.48
2023-03-06T19:03:46.753Z,14.98
2023-03-06T19:06:15.361Z,13.25
2023-03-06T19:08:42.256Z,10.75
2023-03-06T19:11:14.809Z,8.43
2023-03-06T19:13:42.061Z,8.70
2023-03-06T19:16:09.382Z,9.48
2023-03-06T19:18:36.215Z,6.80
2023-03-06T19:21:10.771Z,8.00
2023-03-06T19:23:38.132Z,7.72
2023-03-06T19:26:05.302Z,7.88
2023-03-06T19:28:32.060Z,7.70
2023-03-06T19:30:58.797Z,9.20
2023-03-06T19:33:25.977Z,9.02
2023-03-06T19:35:53.239Z,9.15
2023-03-06T19:38:20.004Z,9.10
2023-03-06T19:40:50.682Z,8.27
2023-03-06T19:45:44.618Z,10.48
2023-03-06T19:48:12.645Z,9.77
2023-03-06T19:50:40.485Z,9.60
2023-03-06T19:53:07.933Z,10.55
2023-03-06T19:55:38.034Z,9.60
2023-03-06T19:58:04.962Z,8.38
2023-03-06T20:00:31.921Z,9.18
2023-03-06T20:02:58.707Z,8.43
2023-03-06T20:05:25.422Z,8.35
2023-03-06T20:07:52.399Z,7.50
2023-03-06T20:10:19.351Z,6.95
2023-03-06T20:12:46.100Z,8.43
2023-03-06T20:15:13.215Z,8.30
2023-03-06T20:17:40.901Z,8.30
2023-03-06T20:20:10.799Z,8.45
2023-03-06T20:22:37.811Z,9.90
2023-03-06T20:25:05.023Z,8.68
2023-03-06T20:27:31.906Z,8.80
2023-03-06T20:29:58.624Z,8.35
2023-03-06T20:32:25.585Z,8.25
2023-03-06T20:34:52.353Z,8.63
2023-03-06T20:37:19.259Z,7.88
2023-03-06T20:39:46.790Z,7.43
2023-03-06T20:42:13.548Z,8.02
2023-03-06T20:44:40.239Z,7.85
2023-03-06T20:47:07.731Z,9.93
2023-03-06T20:49:34.458Z,10.20
2023-03-06T20:52:01.184Z,7.72
2023-03-06T20:54:27.901Z,9.02
2023-03-06T20:56:54.654Z,9.18
2023-03-06T20:59:21.639Z,10.05
2023-03-06T21:01:48.404Z,9.00
2023-03-06T21:04:15.513Z,8.30
2023-03-06T21:06:46.504Z,9.00
2023-03-06T21:09:17.502Z,9.95
2023-03-06T21:14:13.295Z,8.48
2023-03-06T21:16:40.623Z,8.05
2023-03-06T21:19:07.410Z,9.82
2023-03-06T21:21:35.102Z,8.73
2023-03-06T21:24:02.606Z,10.02
2023-03-06T21:26:31.519Z,12.13
2023-03-06T21:28:59.078Z,8.57
2023-03-06T21:31:26.332Z,11.02
2023-03-06T21:33:53.176Z,9.25
2023-03-06T21:36:24.823Z,10.43
2023-03-06T21:38:52.527Z,10.52
2023-03-06T21:41:27.866Z,7.93
2023-03-06T21:44:03.481Z,9.27
2023-03-06T21:46:30.704Z,8.77
2023-03-06T21:48:57.717Z,8.10
2023-03-06T21:51:25.907Z,9.15
2023-03-06T21:53:53.086Z,8.63
2023-03-06T21:56:22.187Z,8.48
2023-03-06T21:58:48.887Z,8.77
2023-03-06T22:01:21.821Z,8.43
2023-03-06T22:03:48.816Z,8.63
2023-03-06T22:06:26.254Z,9.13
2023-03-06T22:08:55.135Z,8.32
2023-03-06T22:11:23.414Z,8.95
2023-03-06T22:13:50.623Z,8.32
2023-03-06T22:16:18.460Z,9.30
2023-03-06T22:18:46.600Z,9.25
2023-03-06T22:21:15.130Z,8.90
2023-03-06T22:23:42.246Z,9.07
2023-03-06T22:26:12.443Z,9.15
2023-03-06T22:28:39.942Z,8.77
2023-03-06T22:31:12.231Z,11.85
2023-03-06T22:33:39.323Z,48.63
2023-03-06T22:36:11.481Z,17.88
2023-03-06T22:38:40.798Z,11.48
2023-03-06T22:41:08.450Z,9.90
2023-03-06T22:43:35.644Z,10.73
2023-03-06T22:46:04.192Z,9.95
2023-03-06T22:48:31.233Z,11.10
2023-03-06T22:51:05.005Z,10.38
2023-03-06T22:53:32.749Z,10.50
2023-03-06T22:56:00.353Z,14.00
2023-03-06T22:58:28.526Z,10.50
2023-03-06T23:00:55.235Z,13.07
2023-03-06T23:03:21.934Z,10.52
2023-03-06T23:05:48.710Z,9.55
2023-03-06T23:08:15.337Z,9.48
2023-03-06T23:10:42.010Z,9.52
2023-03-06T23:13:27.432Z,8.85
2023-03-06T23:16:13.098Z,8.73
2023-03-06T23:18:58.422Z,9.55
2023-03-06T23:21:43.727Z,8.75
2023-03-06T23:24:29.108Z,8.02
2023-03-06T23:26:55.847Z,8.70
2023-03-06T23:29:22.675Z,7.68
2023-03-06T23:31:49.383Z,8.15
2023-03-06T23:34:16.052Z,7.03
2023-03-06T23:36:42.717Z,8.18
2023-03-06T23:39:09.795Z,8.70
2023-03-06T23:41:36.646Z,7.70
2023-03-06T23:44:03.421Z,7.53
2023-03-06T23:46:30.169Z,8.50
2023-03-06T23:48:56.899Z,7.40
2023-03-06T23:51:23.970Z,8.20
2023-03-06T23:53:58.784Z,7.57
2023-03-06T23:56:27.365Z,7.57
2023-03-06T23:58:54.300Z,7.75
